Time;durP1;ratioP1;P1;durP2;ratioP2;P2;SDS_P1;SDS_P2;PMS_P1;PMS_P2;Temp;Humidity;BMP_temperature;BMP_pressure;BME280_temperature;BME280_humidity;BME280_pressure;Samples;Min_cycle;Max_cycle;Signal;HPM_P1;HPM_P2
2022/02/07 00:00:57;;;;;;;;;;;19.30;58.60;;;;;;5033207;28;1279;-66
2022/02/07 00:03:37;;;;;;;;;;;19.30;58.60;;;;;;5033069;28;1329;-66
2022/02/07 00:06:03;;;;;;;;;;;19.30;58.70;;;;;;5033117;28;1338;-67
2022/02/07 00:08:29;;;;;;;;;;;19.30;58.70;;;;;;5047952;28;1489;-65
2022/02/07 00:10:54;;;;;;;;;;;19.30;58.70;;;;;;5032972;28;1408;-66
2022/02/07 00:13:20;;;;;;;;;;;19.30;58.70;;;;;;5032875;28;1265;-68
2022/02/07 00:15:45;;;;;;;;;;;19.30;58.80;;;;;;5031718;28;1407;-68
2022/02/07 00:18:11;;;;;;;;;;;19.30;58.80;;;;;;5032904;28;1956;-68
2022/02/07 00:20:36;;;;;;;;;;;19.30;58.80;;;;;;5032612;28;1054;-68
2022/02/07 00:23:02;;;;;;;;;;;19.30;58.80;;;;;;5032610;28;1327;-68
2022/02/07 00:25:27;;;;;;;;;;;19.30;58.80;;;;;;5031891;28;1391;-68
2022/02/07 00:27:53;;;;;;;;;;;19.30;58.90;;;;;;5032871;28;1088;-68
2022/02/07 00:30:20;;;;;;;;;;;19.20;58.90;;;;;;5044493;28;1260;-68
2022/02/07 00:32:45;;;;;;;;;;;19.20;58.90;;;;;;5031637;28;1371;-67
2022/02/07 00:35:15;;;;;;;;;;;19.20;58.90;;;;;;5032615;28;1315;-68
2022/02/07 00:37:42;;;;;;;;;;;19.20;58.90;;;;;;5032508;28;1989;-66
2022/02/07 00:42:51;;;;;;;;;;;19.20;59.00;;;;;;5032775;28;1122;-69
2022/02/07 00:45:26;;;;;;;;;;;19.20;59.00;;;;;;5047859;28;1395;-66
2022/02/07 00:47:51;;;;;;;;;;;19.20;59.00;;;;;;5032521;28;1073;-68
2022/02/07 00:50:17;;;;;;;;;;;19.20;59.00;;;;;;5032543;28;1194;-67
2022/02/07 00:52:42;;;;;;;;;;;19.10;59.00;;;;;;5031539;28;1282;-67
2022/02/07 00:55:08;;;;;;;;;;;19.10;59.00;;;;;;5034486;28;1355;-68
2022/02/07 00:57:33;;;;;;;;;;;19.10;59.00;;;;;;5036639;28;1971;-68
2022/02/07 00:59:59;;;;;;;;;;;19.20;59.10;;;;;;5035806;28;1310;-67
2022/02/07 01:02:24;;;;;;;;;;;19.10;59.00;;;;;;5034507;28;1275;-67
2022/02/07 01:04:49;;;;;;;;;;;19.20;59.10;;;;;;5036429;28;1342;-66
2022/02/07 01:07:15;;;;;;;;;;;19.20;59.10;;;;;;5035126;28;1072;-67
2022/02/07 01:09:44;;;;;;;;;;;19.20;59.10;;;;;;5034924;28;1347;-68
2022/02/07 01:12:22;;;;;;;;;;;19.10;59.10;;;;;;5036225;28;1079;-67
2022/02/07 01:14:56;;;;;;;;;;;19.10;59.00;;;;;;5036134;28;1444;-66
2022/02/07 01:52:50;;;;;;;;;;;19.40;58.60;;;;;;5034399;28;1410;-66
2022/02/07 01:55:17;;;;;;;;;;;19.40;59.10;;;;;;5035186;28;1618;-66
2022/02/07 01:57:46;;;;;;;;;;;19.40;58.60;;;;;;5034148;28;1902;-67
2022/02/07 02:00:12;;;;;;;;;;;19.40;58.50;;;;;;5034741;28;1278;-67
2022/02/07 02:02:37;;;;;;;;;;;19.40;58.50;;;;;;5035330;28;1671;-67
2022/02/07 02:05:03;;;;;;;;;;;19.40;58.50;;;;;;5021800;28;1399;-67
2022/02/07 02:07:28;;;;;;;;;;;19.40;58.50;;;;;;5035284;28;1706;-67
2022/02/07 02:09:54;;;;;;;;;;;19.40;58.50;;;;;;5034897;28;1699;-68
2022/02/07 02:12:21;;;;;;;;;;;19.40;58.50;;;;;;5033636;28;1390;-68
2022/02/07 02:46:49;;;;;;;;;;;19.50;58.20;;;;;;5033248;28;1705;-66
2022/02/07 02:49:15;;;;;;;;;;;19.60;58.20;;;;;;5034190;28;852;-66
2022/02/07 02:51:40;;;;;;;;;;;19.60;58.10;;;;;;5033274;28;1712;-66
2022/02/07 02:54:06;;;;;;;;;;;19.60;58.00;;;;;;5033007;28;1326;-66
2022/02/07 02:56:34;;;;;;;;;;;19.70;58.00;;;;;;5034186;28;1646;-66
2022/02/07 02:58:59;;;;;;;;;;;19.70;57.90;;;;;;5049210;28;1961;-66
2022/02/07 03:01:25;;;;;;;;;;;19.80;57.80;;;;;;5032195;28;1303;-67
2022/02/07 03:03:50;;;;;;;;;;;19.80;57.70;;;;;;5033924;28;1518;-67
2022/02/07 03:06:16;;;;;;;;;;;19.90;57.50;;;;;;5034156;28;1660;-67
2022/02/07 03:08:42;;;;;;;;;;;20.00;57.40;;;;;;5034070;28;1659;-67
2022/02/07 03:11:17;;;;;;;;;;;20.10;57.30;;;;;;5034023;28;1418;-67
2022/02/07 03:18:58;;;;;;;;;;;20.30;56.60;;;;;;5033168;28;1953;-68
2022/02/07 03:21:24;;;;;;;;;;;20.40;56.50;;;;;;5033808;28;1365;-67
2022/02/07 03:23:49;;;;;;;;;;;20.40;56.40;;;;;;5032358;28;1364;-66
2022/02/07 03:26:17;;;;;;;;;;;20.50;56.20;;;;;;5027873;28;1362;-67
2022/02/07 03:28:43;;;;;;;;;;;20.50;56.10;;;;;;5009012;28;1347;-68
2022/02/07 03:31:09;;;;;;;;;;;20.50;56.00;;;;;;5025545;28;1260;-68
2022/02/07 03:33:35;;;;;;;;;;;20.50;55.90;;;;;;5021483;28;1485;-66
2022/02/07 03:36:01;;;;;;;;;;;20.60;55.90;;;;;;5022823;28;1458;-68
2022/02/07 03:38:26;;;;;;;;;;;20.60;55.90;;;;;;5033349;28;1918;-67
2022/02/07 03:40:52;;;;;;;;;;;20.60;55.90;;;;;;5033589;28;1650;-67
2022/02/07 03:43:17;;;;;;;;;;;20.60;55.80;;;;;;5033513;28;1569;-68
2022/02/07 03:45:42;;;;;;;;;;;20.60;55.80;;;;;;5033048;28;1696;-67
2022/02/07 03:48:08;;;;;;;;;;;20.60;55.80;;;;;;5033050;28;1357;-68
2022/02/07 03:50:33;;;;;;;;;;;20.60;55.80;;;;;;5033311;28;1373;-68
2022/02/07 03:52:59;;;;;;;;;;;20.60;56.40;;;;;;5032267;28;1045;-67
2022/02/07 03:55:24;;;;;;;;;;;20.60;55.80;;;;;;5031969;28;1235;-67
2022/02/07 03:57:50;;;;;;;;;;;20.60;55.80;;;;;;5032971;28;1910;-68
2022/02/07 04:00:16;;;;;;;;;;;20.60;55.80;;;;;;5033111;28;1115;-66
2022/02/07 04:02:44;;;;;;;;;;;20.60;55.80;;;;;;5033449;28;1428;-67
2022/02/07 04:07:54;;;;;;;;;;;20.60;55.80;;;;;;5032901;28;1056;-66
2022/02/07 04:10:21;;;;;;;;;;;20.60;55.80;;;;;;5031514;28;1144;-66
2022/02/07 04:12:53;;;;;;;;;;;20.60;55.90;;;;;;5032964;28;1391;-67
2022/02/07 04:15:19;;;;;;;;;;;20.60;55.90;;;;;;5033195;28;1305;-67
2022/02/07 04:17:52;;;;;;;;;;;20.60;55.90;;;;;;5048718;28;1934;-66
2022/02/07 04:20:18;;;;;;;;;;;20.60;55.90;;;;;;5032678;28;1409;-66
2022/02/07 04:22:43;;;;;;;;;;;20.60;55.90;;;;;;5032786;28;1348;-66
2022/02/07 04:25:09;;;;;;;;;;;20.60;55.90;;;;;;5032757;28;1229;-67
2022/02/07 04:27:34;;;;;;;;;;;20.50;55.90;;;;;;5032811;28;1223;-66
2022/02/07 04:30:00;;;;;;;;;;;20.50;55.90;;;;;;5045074;28;1095;-67
2022/02/07 04:32:25;;;;;;;;;;;20.50;56.00;;;;;;5038394;28;1133;-67
2022/02/07 04:34:50;;;;;;;;;;;20.50;56.00;;;;;;5027927;28;1329;-67
2022/02/07 04:37:17;;;;;;;;;;;20.50;56.00;;;;;;5035170;28;1167;-66
2022/02/07 04:39:42;;;;;;;;;;;20.50;56.00;;;;;;5036524;28;1906;-66
2022/02/07 04:42:10;;;;;;;;;;;20.50;56.00;;;;;;5035657;28;1045;-66
2022/02/07 04:44:49;;;;;;;;;;;20.50;56.10;;;;;;5036705;28;1408;-67
2022/02/07 04:47:39;;;;;;;;;;;20.50;56.10;;;;;;5035976;28;997;-66
2022/02/07 04:55:45;;;;;;;;;;;20.40;56.10;;;;;;5035615;28;1358;-66
2022/02/07 04:58:42;;;;;;;;;;;20.40;56.10;;;;;;5035369;28;1910;-67
2022/02/07 05:01:47;;;;;;;;;;;20.40;56.20;;;;;;5036392;28;1032;-67
2022/02/07 05:04:06;;;;;;;;;;;20.40;56.20;;;;;;5035000;28;1373;-67
2022/02/07 05:14:47;;;;;;;;;;;20.40;56.30;;;;;;5036225;28;1394;-66
2022/02/07 05:17:15;;;;;;;;;;;20.40;56.30;;;;;;5036254;28;1284;-66
2022/02/07 05:19:41;;;;;;;;;;;20.40;56.30;;;;;;5035769;28;1902;-66
2022/02/07 05:22:06;;;;;;;;;;;20.40;56.40;;;;;;5035982;28;1304;-67
2022/02/07 05:24:32;;;;;;;;;;;20.40;56.40;;;;;;5036059;28;1403;-66
2022/02/07 05:26:57;;;;;;;;;;;20.40;56.40;;;;;;5035961;28;1074;-68
2022/02/07 05:29:22;;;;;;;;;;;20.30;56.30;;;;;;5041150;28;1317;-66
2022/02/07 05:31:48;;;;;;;;;;;20.30;56.40;;;;;;5042598;28;1165;-67
2022/02/07 05:34:13;;;;;;;;;;;20.30;56.40;;;;;;5031829;28;1504;-67
2022/02/07 05:36:43;;;;;;;;;;;20.30;56.40;;;;;;5029249;28;1380;-66
2022/02/07 05:39:09;;;;;;;;;;;20.30;56.40;;;;;;5035431;28;1910;-66
2022/02/07 05:41:34;;;;;;;;;;;20.30;56.40;;;;;;5035172;28;1138;-66
2022/02/07 05:44:00;;;;;;;;;;;20.30;56.50;;;;;;5035821;28;1321;-67
2022/02/07 05:46:25;;;;;;;;;;;20.30;56.50;;;;;;5035656;28;1356;-67
2022/02/07 05:48:51;;;;;;;;;;;20.30;56.50;;;;;;5035460;28;1412;-67
2022/02/07 05:51:16;;;;;;;;;;;20.30;56.50;;;;;;5035442;28;1059;-67
2022/02/07 05:53:42;;;;;;;;;;;20.30;56.50;;;;;;5015594;28;1259;-67
2022/02/07 05:56:07;;;;;;;;;;;20.30;56.60;;;;;;5015586;28;1396;-67
2022/02/07 05:58:32;;;;;;;;;;;20.30;56.60;;;;;;5013922;28;1959;-66
2022/02/07 06:00:58;;;;;;;;;;;20.30;56.60;;;;;;5014464;28;1414;-67
2022/02/07 06:03:23;;;;;;;;;;;20.30;56.60;;;;;;5028148;28;1289;-67
2022/02/07 06:05:52;;;;;;;;;;;20.30;56.60;;;;;;5035269;28;1452;-67
2022/02/07 06:08:17;;;;;;;;;;;20.20;56.60;;;;;;5034957;28;1500;-67
2022/02/07 06:10:44;;;;;;;;;;;20.20;56.60;;;;;;5035156;28;1286;-67
2022/02/07 06:13:19;;;;;;;;;;;20.20;56.60;;;;;;5014068;28;1124;-67
2022/02/07 06:15:44;;;;;;;;;;;20.20;56.70;;;;;;5014143;28;1374;-66
2022/02/07 06:18:13;;;;;;;;;;;20.20;56.70;;;;;;5015078;28;1947;-67
2022/02/07 06:20:38;;;;;;;;;;;20.20;56.70;;;;;;5015115;28;1277;-67
2022/02/07 06:23:03;;;;;;;;;;;20.20;56.70;;;;;;5015250;28;1335;-67
2022/02/07 06:25:29;;;;;;;;;;;20.20;56.70;;;;;;5014813;28;1348;-67
2022/02/07 06:27:54;;;;;;;;;;;20.20;56.70;;;;;;5015098;28;1399;-68
2022/02/07 06:30:20;;;;;;;;;;;20.20;56.70;;;;;;5029179;28;1254;-67
2022/02/07 06:32:45;;;;;;;;;;;20.20;56.80;;;;;;5034742;28;1091;-68
2022/02/07 06:35:11;;;;;;;;;;;20.20;56.80;;;;;;5023677;28;1300;-68
2022/02/07 06:37:36;;;;;;;;;;;20.20;56.80;;;;;;5034654;28;1072;-67
2022/02/07 06:40:02;;;;;;;;;;;20.20;56.90;;;;;;5032900;28;1961;-67
2022/02/07 06:42:27;;;;;;;;;;;20.10;56.80;;;;;;5033373;28;1111;-68
2022/02/07 06:44:53;;;;;;;;;;;20.10;56.90;;;;;;5034306;28;1343;-67
2022/02/07 06:47:18;;;;;;;;;;;20.10;56.90;;;;;;5034565;28;1123;-67
2022/02/07 06:49:44;;;;;;;;;;;20.10;56.90;;;;;;5034157;28;1060;-67
2022/02/07 06:52:09;;;;;;;;;;;20.10;56.90;;;;;;5033700;28;1119;-67
2022/02/07 06:54:35;;;;;;;;;;;20.10;56.90;;;;;;5032700;28;1339;-68
2022/02/07 06:57:01;;;;;;;;;;;20.10;57.00;;;;;;5034585;28;1039;-67
2022/02/07 06:59:27;;;;;;;;;;;20.10;57.00;;;;;;5033611;28;1977;-67
2022/02/07 07:01:53;;;;;;;;;;;20.10;57.00;;;;;;5034237;28;1094;-67
2022/02/07 07:04:18;;;;;;;;;;;20.10;57.00;;;;;;5034066;28;1366;-67
2022/02/07 07:06:44;;;;;;;;;;;20.10;57.00;;;;;;5033505;28;1956;-67
2022/02/07 07:09:12;;;;;;;;;;;20.10;57.00;;;;;;5019416;28;1810;-67
2022/02/07 07:11:38;;;;;;;;;;;20.10;57.00;;;;;;5028066;28;1167;-69
2022/02/07 07:14:16;;;;;;;;;;;20.00;57.00;;;;;;5030095;28;1228;-70
2022/02/07 07:16:51;;;;;;;;;;;20.00;57.00;;;;;;5033768;28;1076;-69
2022/02/07 07:19:17;;;;;;;;;;;20.10;57.10;;;;;;5033557;28;1968;-69
2022/02/07 07:21:42;;;;;;;;;;;20.00;57.00;;;;;;5033574;28;1290;-69
2022/02/07 07:24:08;;;;;;;;;;;20.00;57.00;;;;;;5033648;28;1368;-68
2022/02/07 07:26:34;;;;;;;;;;;20.00;57.00;;;;;;5033731;28;1073;-69
2022/02/07 07:29:02;;;;;;;;;;;20.00;57.00;;;;;;5036839;28;1342;-68
2022/02/07 07:31:28;;;;;;;;;;;20.00;57.60;;;;;;5042863;28;1274;-68
2022/02/07 07:33:54;;;;;;;;;;;20.00;57.00;;;;;;5031886;28;1373;-68
2022/02/07 07:36:21;;;;;;;;;;;20.00;57.10;;;;;;5022810;28;1364;-68
2022/02/07 07:38:48;;;;;;;;;;;20.00;57.00;;;;;;5032060;28;1910;-68
2022/02/07 07:41:13;;;;;;;;;;;20.10;57.00;;;;;;5033484;28;1131;-68
2022/02/07 07:43:40;;;;;;;;;;;20.20;56.90;;;;;;5033128;28;1323;-69
2022/02/07 07:46:10;;;;;;;;;;;20.30;56.80;;;;;;5033468;28;1094;-68
2022/02/07 07:48:36;;;;;;;;;;;20.40;56.60;;;;;;5032960;28;1111;-68
2022/02/07 08:02:18;;;;;;;;;;;21.00;55.50;;;;;;5033240;28;1075;-67
2022/02/07 08:04:28;;;;;;;;;;;21.10;55.20;;;;;;5009955;28;1308;-67
2022/02/07 08:07:39;;;;;;;;;;;21.20;54.90;;;;;;5012378;28;1281;-67
2022/02/07 08:10:01;;;;;;;;;;;21.30;54.70;;;;;;5008979;28;1364;-67
2022/02/07 08:12:27;;;;;;;;;;;21.30;54.50;;;;;;5033317;28;1286;-67
2022/02/07 08:14:52;;;;;;;;;;;21.40;54.40;;;;;;5033000;28;1296;-67
2022/02/07 08:17:21;;;;;;;;;;;21.40;54.30;;;;;;5032907;28;1056;-67
2022/02/07 08:19:47;;;;;;;;;;;21.40;54.30;;;;;;5032545;28;1910;-67
2022/02/07 08:22:13;;;;;;;;;;;21.40;54.20;;;;;;5031633;28;1276;-67
2022/02/07 08:24:38;;;;;;;;;;;21.50;54.30;;;;;;5032756;28;1457;-67
2022/02/07 08:27:04;;;;;;;;;;;21.50;54.30;;;;;;5031823;28;1387;-67
2022/02/07 08:29:30;;;;;;;;;;;21.50;54.20;;;;;;5040379;28;1178;-67
2022/02/07 08:31:55;;;;;;;;;;;21.50;54.30;;;;;;5038388;28;1255;-67
2022/02/07 08:34:21;;;;;;;;;;;21.50;54.20;;;;;;5027341;28;1271;-67
2022/02/07 08:36:46;;;;;;;;;;;21.50;54.20;;;;;;5026690;28;1346;-67
2022/02/07 08:39:11;;;;;;;;;;;21.50;54.20;;;;;;5032491;28;1959;-67
2022/02/07 08:41:37;;;;;;;;;;;21.50;54.20;;;;;;5032789;28;1360;-67
2022/02/07 08:44:02;;;;;;;;;;;21.50;54.20;;;;;;5032539;28;1293;-67
2022/02/07 08:46:28;;;;;;;;;;;21.50;54.20;;;;;;5032730;28;1343;-67
2022/02/07 08:48:53;;;;;;;;;;;21.40;54.20;;;;;;5032328;28;1068;-67
2022/02/07 08:51:19;;;;;;;;;;;21.40;54.30;;;;;;5032480;28;1322;-67
2022/02/07 08:53:46;;;;;;;;;;;21.40;54.30;;;;;;5032496;28;1392;-67
2022/02/07 08:56:12;;;;;;;;;;;21.40;54.30;;;;;;5048063;28;1318;-67
2022/02/07 08:58:40;;;;;;;;;;;21.40;54.40;;;;;;5031176;28;1910;-67
2022/02/07 09:09:05;;;;;;;;;;;21.30;54.50;;;;;;5031357;28;1249;-67
2022/02/07 09:11:23;;;;;;;;;;;21.30;54.60;;;;;;5033398;28;1342;-67
2022/02/07 09:13:48;;;;;;;;;;;21.20;54.60;;;;;;5032409;28;1280;-66
2022/02/07 09:16:29;;;;;;;;;;;21.20;54.70;;;;;;5034339;28;1409;-67
2022/02/07 09:18:58;;;;;;;;;;;21.20;54.70;;;;;;5034805;28;1971;-67
2022/02/07 09:21:24;;;;;;;;;;;21.20;54.80;;;;;;5036070;28;1409;-67
2022/02/07 09:23:49;;;;;;;;;;;21.20;54.80;;;;;;5036040;28;1326;-67
2022/02/07 09:26:14;;;;;;;;;;;21.20;54.90;;;;;;5036322;28;1380;-67
2022/02/07 09:28:41;;;;;;;;;;;21.20;54.90;;;;;;5036301;28;1293;-67
2022/02/07 09:31:07;;;;;;;;;;;21.10;54.90;;;;;;5048196;28;1328;-68
2022/02/07 09:33:32;;;;;;;;;;;21.10;55.00;;;;;;5035754;28;1448;-67
2022/02/07 09:35:58;;;;;;;;;;;21.10;55.00;;;;;;5035840;28;1063;-67
2022/02/07 09:38:23;;;;;;;;;;;21.10;55.10;;;;;;5035560;28;1963;-67
2022/02/07 09:40:52;;;;;;;;;;;21.10;55.10;;;;;;5035655;28;1043;-67
2022/02/07 09:43:18;;;;;;;;;;;21.10;55.20;;;;;;5035615;28;1441;-67
2022/02/07 09:45:45;;;;;;;;;;;21.10;55.20;;;;;;5035431;28;1295;-67
2022/02/07 09:48:10;;;;;;;;;;;21.10;55.20;;;;;;5035518;28;1051;-67
2022/02/07 09:50:36;;;;;;;;;;;21.00;55.20;;;;;;5035563;28;1385;-67
2022/02/07 09:53:01;;;;;;;;;;;21.00;55.20;;;;;;5035540;28;1310;-67
2022/02/07 09:55:27;;;;;;;;;;;21.00;55.40;;;;;;5035600;28;1336;-67
2022/02/07 09:57:54;;;;;;;;;;;21.00;55.40;;;;;;5032708;28;1906;-67
2022/02/07 10:00:22;;;;;;;;;;;21.00;55.40;;;;;;5025162;28;1805;-67
2022/02/07 10:03:00;;;;;;;;;;;20.90;55.40;;;;;;5030196;28;1730;-67
2022/02/07 10:05:28;;;;;;;;;;;20.90;55.40;;;;;;5027660;28;1350;-67
2022/02/07 10:08:09;;;;;;;;;;;20.90;55.50;;;;;;5021640;28;1782;-67
2022/02/07 10:10:47;;;;;;;;;;;20.90;55.50;;;;;;5031844;28;1511;-66
2022/02/07 10:13:37;;;;;;;;;;;20.90;55.60;;;;;;5027155;28;1331;-66
2022/02/07 10:16:35;;;;;;;;;;;20.80;55.60;;;;;;5033428;28;1346;-66
2022/02/07 10:19:04;;;;;;;;;;;20.80;55.70;;;;;;5029841;28;1972;-66
2022/02/07 10:22:01;;;;;;;;;;;20.80;55.70;;;;;;5035161;28;1214;-66
2022/02/07 10:38:38;;;;;;;;;;;20.70;56.00;;;;;;4998969;28;1894;-67
2022/02/07 10:43:33;;;;;;;;;;;20.70;55.90;;;;;;5033019;28;1339;-66
2022/02/07 10:46:14;;;;;;;;;;;20.80;55.90;;;;;;5033726;28;1155;-66
2022/02/07 10:48:53;;;;;;;;;;;20.80;55.80;;;;;;5032885;28;1056;-67
2022/02/07 10:51:18;;;;;;;;;;;20.90;55.80;;;;;;5034499;28;1334;-66
2022/02/07 10:53:48;;;;;;;;;;;20.90;55.70;;;;;;5034190;28;1330;-66
2022/02/07 10:56:13;;;;;;;;;;;21.00;55.60;;;;;;5033119;28;1304;-67
2022/02/07 10:58:39;;;;;;;;;;;21.10;55.50;;;;;;5032717;28;1906;-67
2022/02/07 11:01:10;;;;;;;;;;;21.10;55.40;;;;;;5033993;28;1550;-67
2022/02/07 11:03:41;;;;;;;;;;;21.10;55.20;;;;;;5034015;28;1429;-66
2022/02/07 11:06:08;;;;;;;;;;;21.20;55.10;;;;;;5034099;28;1162;-66
2022/02/07 11:09:25;;;;;;;;;;;21.20;55.00;;;;;;5032440;28;1330;-66
2022/02/07 11:16:50;;;;;;;;;;;21.30;54.80;;;;;;5030926;28;1203;-67
2022/02/07 11:19:36;;;;;;;;;;;21.30;54.80;;;;;;5033279;28;1953;-66
2022/02/07 11:22:28;;;;;;;;;;;21.30;54.80;;;;;;5032504;28;1126;-67
2022/02/07 11:25:44;;;;;;;;;;;21.30;54.80;;;;;;5024477;28;1240;-67
2022/02/07 11:27:50;;;;;;;;;;;21.30;54.80;;;;;;5011960;28;1396;-67
2022/02/07 11:30:15;;;;;;;;;;;21.20;54.80;;;;;;5030744;28;1048;-67
2022/02/07 11:32:46;;;;;;;;;;;21.20;54.80;;;;;;5032289;28;1108;-67
2022/02/07 11:35:11;;;;;;;;;;;21.20;54.90;;;;;;5033193;28;1483;-67
2022/02/07 11:37:37;;;;;;;;;;;21.20;54.90;;;;;;5030459;28;966;-66
2022/02/07 11:40:21;;;;;;;;;;;21.20;54.90;;;;;;5028533;28;1883;-66
2022/02/07 11:43:05;;;;;;;;;;;21.20;55.00;;;;;;5028572;28;1158;-67
2022/02/07 11:45:39;;;;;;;;;;;21.20;55.00;;;;;;5033640;28;1459;-68
2022/02/07 11:48:09;;;;;;;;;;;21.20;55.10;;;;;;5032001;28;1405;-68
2022/02/07 11:50:35;;;;;;;;;;;21.10;55.10;;;;;;5027379;28;1090;-67
2022/02/07 11:53:01;;;;;;;;;;;21.10;55.10;;;;;;5031868;28;1430;-68
2022/02/07 11:55:33;;;;;;;;;;;21.10;55.10;;;;;;5033262;28;1462;-67
2022/02/07 12:00:58;;;;;;;;;;;21.10;55.20;;;;;;5020882;28;1408;-67
2022/02/07 12:03:23;;;;;;;;;;;21.10;55.20;;;;;;5031732;28;1434;-68
2022/02/07 12:05:52;;;;;;;;;;;21.10;55.30;;;;;;5032257;28;1319;-66
2022/02/07 12:08:22;;;;;;;;;;;21.00;55.20;;;;;;5031535;28;1584;-67
2022/02/07 12:11:02;;;;;;;;;;;21.00;55.20;;;;;;5032990;28;1385;-67
2022/02/07 12:13:28;;;;;;;;;;;21.00;55.20;;;;;;5032670;28;1274;-68
2022/02/07 12:15:56;;;;;;;;;;;21.00;55.30;;;;;;5033513;28;1432;-67
2022/02/07 12:18:22;;;;;;;;;;;21.00;55.30;;;;;;5032720;28;1906;-67
2022/02/07 12:20:49;;;;;;;;;;;21.00;55.30;;;;;;5032982;28;1060;-68
2022/02/07 12:23:17;;;;;;;;;;;20.90;55.30;;;;;;5032951;28;1073;-68
2022/02/07 12:25:53;;;;;;;;;;;20.90;55.30;;;;;;5031565;28;1418;-67
2022/02/07 12:28:30;;;;;;;;;;;20.90;55.40;;;;;;5032582;28;1294;-67
2022/02/07 12:31:09;;;;;;;;;;;20.90;55.40;;;;;;5045108;28;1241;-67
2022/02/07 12:33:35;;;;;;;;;;;20.90;55.40;;;;;;5032687;28;1334;-67
2022/02/07 12:36:00;;;;;;;;;;;20.90;55.40;;;;;;5021603;28;1185;-67
2022/02/07 12:38:30;;;;;;;;;;;20.80;55.40;;;;;;5030946;28;1973;-66
2022/02/07 12:40:56;;;;;;;;;;;20.80;55.40;;;;;;5032869;28;1365;-68
2022/02/07 12:43:22;;;;;;;;;;;20.80;55.40;;;;;;5031448;28;1445;-67
2022/02/07 12:45:47;;;;;;;;;;;20.80;55.40;;;;;;5031466;28;1361;-67
2022/02/07 12:48:15;;;;;;;;;;;20.80;55.40;;;;;;5031522;28;1401;-66
2022/02/07 12:50:41;;;;;;;;;;;20.80;55.40;;;;;;5034345;28;1402;-66
2022/02/07 12:53:06;;;;;;;;;;;20.80;55.30;;;;;;5036676;28;1186;-66
2022/02/07 12:55:34;;;;;;;;;;;20.80;55.30;;;;;;5036479;28;1359;-66
2022/02/07 12:57:59;;;;;;;;;;;20.80;55.30;;;;;;5036487;28;1960;-67
2022/02/07 13:00:24;;;;;;;;;;;20.80;55.20;;;;;;5036103;28;1349;-66
2022/02/07 13:02:50;;;;;;;;;;;20.80;55.80;;;;;;5035372;28;1376;-66
2022/02/07 13:05:16;;;;;;;;;;;20.80;55.20;;;;;;5036503;28;1347;-66
2022/02/07 13:07:45;;;;;;;;;;;20.80;55.10;;;;;;5025562;28;1974;-67
2022/02/07 13:10:13;;;;;;;;;;;20.90;55.10;;;;;;5024456;28;1091;-67
2022/02/07 13:15:26;;;;;;;;;;;20.90;55.10;;;;;;5024506;28;1322;-66
2022/02/07 13:17:53;;;;;;;;;;;20.90;55.10;;;;;;5033022;28;1111;-66
2022/02/07 13:20:19;;;;;;;;;;;20.90;55.00;;;;;;5027747;28;1902;-67
2022/02/07 13:22:45;;;;;;;;;;;20.90;55.00;;;;;;5034523;28;1218;-67
2022/02/07 13:25:10;;;;;;;;;;;20.90;55.00;;;;;;5029369;28;1271;-66
2022/02/07 13:27:39;;;;;;;;;;;20.90;55.00;;;;;;5036394;28;1412;-67
2022/02/07 13:30:07;;;;;;;;;;;20.90;54.90;;;;;;5037854;28;1121;-67
2022/02/07 13:32:33;;;;;;;;;;;20.90;54.90;;;;;;5035278;28;1295;-68
2022/02/07 13:35:16;;;;;;;;;;;20.90;54.90;;;;;;5034389;28;1449;-67
2022/02/07 13:37:43;;;;;;;;;;;20.90;54.90;;;;;;5024577;28;1062;-67
2022/02/07 13:40:12;;;;;;;;;;;20.90;55.00;;;;;;5034138;28;1910;-67
2022/02/07 13:42:39;;;;;;;;;;;20.90;55.00;;;;;;5035844;28;1393;-67
2022/02/07 13:45:16;;;;;;;;;;;20.90;55.10;;;;;;5035149;28;1270;-67
2022/02/07 13:47:45;;;;;;;;;;;20.90;55.10;;;;;;5034592;28;1366;-67
2022/02/07 13:50:11;;;;;;;;;;;20.80;55.70;;;;;;5034035;28;1068;-67
2022/02/07 13:52:41;;;;;;;;;;;20.80;55.20;;;;;;5034503;28;1276;-67
2022/02/07 13:55:25;;;;;;;;;;;20.80;55.20;;;;;;5034295;28;1547;-68
2022/02/07 13:57:51;;;;;;;;;;;20.80;55.20;;;;;;5035686;28;1388;-67
2022/02/07 14:00:17;;;;;;;;;;;20.80;55.20;;;;;;5035304;28;1910;-67
2022/02/07 14:02:43;;;;;;;;;;;20.80;55.20;;;;;;5017209;28;1324;-67
2022/02/07 14:05:09;;;;;;;;;;;20.80;55.30;;;;;;5034183;28;1211;-67
2022/02/07 14:07:50;;;;;;;;;;;20.80;55.30;;;;;;5035352;28;1404;-68
2022/02/07 14:10:20;;;;;;;;;;;20.80;55.30;;;;;;5034917;28;1052;-68
2022/02/07 14:12:45;;;;;;;;;;;20.70;55.30;;;;;;5035121;28;1130;-66
2022/02/07 14:15:11;;;;;;;;;;;20.70;55.30;;;;;;5035106;28;1352;-68
2022/02/07 14:17:42;;;;;;;;;;;20.70;55.30;;;;;;5035174;28;1431;-67
2022/02/07 14:20:10;;;;;;;;;;;20.70;55.30;;;;;;5050090;28;1961;-67
2022/02/07 14:22:36;;;;;;;;;;;20.70;55.30;;;;;;5034610;28;1406;-66
2022/02/07 14:25:02;;;;;;;;;;;20.70;55.10;;;;;;5033518;28;1384;-67
2022/02/07 14:27:27;;;;;;;;;;;20.70;54.70;;;;;;5033583;28;1603;-66
2022/02/07 14:29:53;;;;;;;;;;;20.70;53.60;;;;;;5044260;28;1197;-66
2022/02/07 14:32:18;;;;;;;;;;;20.70;50.90;;;;;;5037019;28;1265;-67
2022/02/07 14:34:44;;;;;;;;;;;20.70;49.30;;;;;;5026374;28;1236;-67
2022/02/07 14:37:10;;;;;;;;;;;20.70;49.20;;;;;;5031871;28;1048;-67
2022/02/07 14:39:36;;;;;;;;;;;20.60;48.80;;;;;;5029789;28;1983;-67
2022/02/07 14:42:04;;;;;;;;;;;20.60;48.70;;;;;;5034669;28;1476;-67
2022/02/07 14:44:32;;;;;;;;;;;20.60;49.10;;;;;;5034153;28;1323;-67
2022/02/07 14:47:10;;;;;;;;;;;20.60;49.40;;;;;;5030113;28;2675;-68
2022/02/07 14:49:36;;;;;;;;;;;20.60;49.60;;;;;;5032630;28;1163;-68
2022/02/07 14:52:03;;;;;;;;;;;20.60;49.90;;;;;;5028942;28;1317;-67
2022/02/07 14:54:29;;;;;;;;;;;20.60;50.10;;;;;;5025675;28;1248;-68
2022/02/07 14:56:54;;;;;;;;;;;20.60;50.40;;;;;;5016569;28;1446;-68
2022/02/07 14:59:23;;;;;;;;;;;20.60;50.70;;;;;;5049231;28;1914;-68
2022/02/07 15:01:52;;;;;;;;;;;20.60;51.00;;;;;;5049904;28;1342;-68
2022/02/07 15:04:20;;;;;;;;;;;20.60;51.30;;;;;;5014138;28;1341;-67
2022/02/07 15:06:46;;;;;;;;;;;20.60;51.40;;;;;;5014386;28;1048;-68
2022/02/07 15:09:11;;;;;;;;;;;20.60;51.60;;;;;;5022569;28;2823;-67
2022/02/07 15:11:37;;;;;;;;;;;20.60;51.90;;;;;;5032838;28;1013;-68
2022/02/07 15:14:02;;;;;;;;;;;20.50;51.90;;;;;;5033170;28;1374;-68
2022/02/07 15:16:28;;;;;;;;;;;20.50;52.10;;;;;;5033880;28;1401;-67
2022/02/07 15:18:53;;;;;;;;;;;20.50;52.20;;;;;;5032204;28;1914;-68
2022/02/07 15:21:19;;;;;;;;;;;20.50;52.30;;;;;;5033628;28;1074;-68
2022/02/07 15:23:44;;;;;;;;;;;20.50;52.50;;;;;;5033794;28;1321;-68
2022/02/07 15:26:09;;;;;;;;;;;20.50;52.70;;;;;;5032316;28;1541;-68
2022/02/07 15:28:35;;;;;;;;;;;20.50;52.80;;;;;;5033521;28;1368;-68
2022/02/07 15:31:00;;;;;;;;;;;20.50;52.90;;;;;;5033525;28;1317;-68
2022/02/07 15:33:34;;;;;;;;;;;20.50;53.00;;;;;;5033444;28;1334;-68
2022/02/07 15:36:00;;;;;;;;;;;20.50;53.10;;;;;;5022552;28;1051;-69
2022/02/07 15:38:25;;;;;;;;;;;20.40;53.10;;;;;;5033333;28;1914;-67
2022/02/07 15:40:53;;;;;;;;;;;20.40;53.20;;;;;;5033309;28;1414;-68
2022/02/07 15:43:19;;;;;;;;;;;20.40;53.40;;;;;;5033490;28;1039;-68
2022/02/07 15:45:45;;;;;;;;;;;20.50;52.50;;;;;;5033103;28;1396;-67
2022/02/07 15:48:10;;;;;;;;;;;20.50;50.30;;;;;;5033426;28;1287;-67
2022/02/07 15:50:37;;;;;;;;;;;20.50;49.70;;;;;;5031903;28;1061;-67
2022/02/07 15:53:04;;;;;;;;;;;20.40;49.10;;;;;;5048727;28;1923;-67
2022/02/07 15:55:30;;;;;;;;;;;20.40;48.80;;;;;;5033150;28;1293;-68
2022/02/07 15:57:56;;;;;;;;;;;20.40;49.10;;;;;;5031979;28;976;-68
2022/02/07 16:00:21;;;;;;;;;;;20.40;49.50;;;;;;5032797;28;1967;-67
2022/02/07 16:02:50;;;;;;;;;;;20.40;49.80;;;;;;5033236;28;1078;-68
2022/02/07 16:05:17;;;;;;;;;;;20.40;50.00;;;;;;5045305;28;1436;-68
2022/02/07 16:07:42;;;;;;;;;;;20.40;50.20;;;;;;5013691;28;1560;-65
2022/02/07 16:10:08;;;;;;;;;;;20.40;50.50;;;;;;5025423;28;1047;-67
2022/02/07 16:12:33;;;;;;;;;;;20.40;50.60;;;;;;5012036;28;1300;-65
2022/02/07 16:14:59;;;;;;;;;;;20.40;50.90;;;;;;5013360;28;1203;-66
2022/02/07 16:17:25;;;;;;;;;;;20.30;51.10;;;;;;5014367;28;1080;-66
2022/02/07 16:19:50;;;;;;;;;;;20.30;51.20;;;;;;5031294;28;1907;-65
2022/02/07 16:22:16;;;;;;;;;;;20.30;51.40;;;;;;5032156;28;1095;-65
2022/02/07 16:24:45;;;;;;;;;;;20.30;51.50;;;;;;5020389;28;1288;-66
2022/02/07 16:27:11;;;;;;;;;;;20.30;51.70;;;;;;5018275;28;1333;-65
2022/02/07 16:29:37;;;;;;;;;;;20.30;51.80;;;;;;5040905;28;1245;-65
2022/02/07 16:32:02;;;;;;;;;;;20.30;51.80;;;;;;5036295;28;1086;-66
2022/02/07 16:34:28;;;;;;;;;;;20.30;51.70;;;;;;5026827;28;1204;-65
2022/02/07 16:36:53;;;;;;;;;;;20.30;51.40;;;;;;5028020;28;1111;-65
2022/02/07 16:39:20;;;;;;;;;;;20.30;51.30;;;;;;5032473;28;1894;-66
2022/02/07 16:41:45;;;;;;;;;;;20.30;51.30;;;;;;5032764;28;1092;-66
2022/02/07 16:44:12;;;;;;;;;;;20.30;50.70;;;;;;5031047;28;1548;-65
2022/02/07 16:46:51;;;;;;;;;;;20.20;50.60;;;;;;5030240;28;1163;-65
2022/02/07 16:49:17;;;;;;;;;;;20.20;49.70;;;;;;5021479;28;1048;-65
2022/02/07 16:51:42;;;;;;;;;;;20.20;49.80;;;;;;5018298;28;1317;-65
2022/02/07 16:54:08;;;;;;;;;;;20.20;50.00;;;;;;5032686;28;1370;-65